Pilot Butte, Canada
Current Conditions -  °F | °C
As of 9:00 PM on Friday 24 Oct 2014 (Local Time) from CYQR Reporting Station
Few Clouds Few Clouds  
Wind Chill: -2°   Ceiling: Unl
Heat Index:   Visibility: 15mi
Dew Point:   Wind: 10mph
Humidity: 87%   Direction: 260°W
Pressure: 29.97"   Gusts: NA
Location:  50.48°N, 104.42°W
Report Text: CYQR 250300Z 26009KT 15SM FEW200 02/M00 A2997 RMK CI1 CI TR SLP168
Loading
Personal Weather Stations






























Interactive Weather Map
Tropical Storm Tracking
New forecast layout! Learn more

10-Day Weather Forecast

Advertisements
Track Severe Weather on mobile